createdAt,value
2017-07-20T00:00:50.796Z,86.40
2017-07-20T00:03:19.219Z,86.70
2017-07-20T00:05:47.651Z,86.60
2017-07-20T00:08:16.050Z,86.10
2017-07-20T00:10:44.448Z,86.60
2017-07-20T00:13:12.913Z,85.80
2017-07-20T00:15:41.311Z,86.60
2017-07-20T00:18:09.714Z,87.30
2017-07-20T00:20:38.138Z,87.50
2017-07-20T00:23:06.542Z,87.30
2017-07-20T00:25:34.945Z,86.60
2017-07-20T00:28:03.630Z,86.50
2017-07-20T00:30:32.026Z,85.80
2017-07-20T00:33:00.422Z,86.60
2017-07-20T00:35:28.854Z,87.20
2017-07-20T00:37:57.269Z,87.40
2017-07-20T00:40:25.674Z,88.10
2017-07-20T00:42:54.093Z,87.80
2017-07-20T00:45:22.505Z,87.00
2017-07-20T00:47:50.925Z,87.30
2017-07-20T00:50:19.351Z,87.20
2017-07-20T00:52:47.749Z,87.90
2017-07-20T00:55:16.166Z,89.10
2017-07-20T00:57:44.603Z,88.50
2017-07-20T01:00:13.017Z,88.70
2017-07-20T01:02:41.422Z,89.00
2017-07-20T01:05:09.953Z,88.50
2017-07-20T01:07:38.365Z,88.20
2017-07-20T01:10:06.785Z,88.00
2017-07-20T01:12:35.881Z,88.00
2017-07-20T01:15:03.938Z,88.20
2017-07-20T01:17:32.342Z,88.20
2017-07-20T01:20:00.781Z,89.10
2017-07-20T01:22:29.185Z,87.40
2017-07-20T01:24:57.586Z,87.30
2017-07-20T01:27:26.065Z,87.00
2017-07-20T01:29:54.466Z,86.90
2017-07-20T01:32:22.873Z,86.80
2017-07-20T01:34:51.313Z,87.10
2017-07-20T01:37:19.717Z,87.50
2017-07-20T01:39:48.804Z,86.40
2017-07-20T01:42:17.233Z,86.80
2017-07-20T01:44:45.679Z,87.10
2017-07-20T01:47:14.078Z,88.00
2017-07-20T01:49:42.509Z,87.70
2017-07-20T01:52:10.917Z,87.90
2017-07-20T01:54:39.401Z,87.80
2017-07-20T01:57:08.266Z,87.30
2017-07-20T01:59:36.664Z,86.50
2017-07-20T02:02:05.085Z,85.90
2017-07-20T02:04:33.523Z,85.20
2017-07-20T02:07:01.925Z,85.20
2017-07-20T02:09:30.333Z,84.50
2017-07-20T02:11:58.421Z,84.20
2017-07-20T02:14:26.836Z,83.80
2017-07-20T02:16:55.254Z,83.80
2017-07-20T02:19:23.684Z,83.90
2017-07-20T02:21:52.093Z,84.50
2017-07-20T02:24:20.510Z,85.10
2017-07-20T02:26:48.938Z,86.20
2017-07-20T02:29:17.342Z,85.70
2017-07-20T02:31:46.427Z,86.50
2017-07-20T02:34:14.853Z,86.80
2017-07-20T02:36:43.267Z,85.90
2017-07-20T02:39:11.674Z,86.10
2017-07-20T02:41:40.092Z,85.80
2017-07-20T02:44:08.503Z,85.60
2017-07-20T02:46:36.913Z,85.40
2017-07-20T02:49:05.343Z,84.90
2017-07-20T02:51:33.750Z,85.00
2017-07-20T02:54:02.305Z,85.80
2017-07-20T02:56:30.906Z,86.10
2017-07-20T02:58:59.322Z,86.00
2017-07-20T03:01:27.725Z,85.50
2017-07-20T03:03:56.157Z,85.80
2017-07-20T03:06:24.571Z,85.30
2017-07-20T03:08:52.974Z,85.00
2017-07-20T03:11:21.400Z,85.20
2017-07-20T03:13:49.815Z,85.30
2017-07-20T03:16:18.234Z,85.40
2017-07-20T03:18:46.686Z,84.80
2017-07-20T03:21:15.094Z,84.60
2017-07-20T03:23:43.501Z,83.90
2017-07-20T03:26:12.721Z,83.60
2017-07-20T03:28:41.133Z,83.50
2017-07-20T03:31:09.533Z,83.10
2017-07-20T03:33:37.961Z,83.40
2017-07-20T03:36:06.018Z,83.10
2017-07-20T03:38:34.424Z,82.20
2017-07-20T03:41:02.897Z,81.80
2017-07-20T03:43:31.335Z,82.50
2017-07-20T03:45:59.741Z,82.70
2017-07-20T03:48:28.187Z,82.70
2017-07-20T03:50:56.585Z,82.80
2017-07-20T03:53:24.987Z,82.90
2017-07-20T03:55:53.405Z,83.40
2017-07-20T03:58:21.798Z,83.40
2017-07-20T04:00:50.212Z,84.30
2017-07-20T04:03:18.721Z,85.30
2017-07-20T04:05:47.116Z,84.80
2017-07-20T04:08:15.517Z,84.80
2017-07-20T04:10:43.933Z,85.30
2017-07-20T04:13:12.339Z,85.70
2017-07-20T04:15:40.752Z,85.40
2017-07-20T04:18:09.174Z,83.60
2017-07-20T04:20:37.598Z,82.40
2017-07-20T04:23:06.010Z,82.00
2017-07-20T04:25:34.438Z,81.50
2017-07-20T04:28:02.858Z,80.30
2017-07-20T04:30:31.270Z,81.30
2017-07-20T04:32:59.582Z,81.60
2017-07-20T04:35:27.987Z,80.80
2017-07-20T04:37:56.390Z,80.10
2017-07-20T04:40:24.823Z,79.10
2017-07-20T04:42:54.013Z,77.30
2017-07-20T04:45:22.494Z,77.30
2017-07-20T04:47:50.974Z,76.80
2017-07-20T04:50:19.407Z,77.10
2017-07-20T04:52:50.810Z,77.20
2017-07-20T04:55:22.218Z,76.40
2017-07-20T04:57:50.672Z,75.80
2017-07-20T05:00:19.134Z,75.00
2017-07-20T05:02:47.681Z,76.00
2017-07-20T05:05:16.832Z,73.00
2017-07-20T05:07:45.328Z,72.90
2017-07-20T05:10:16.859Z,72.30
2017-07-20T05:12:45.301Z,72.00
2017-07-20T05:15:13.793Z,72.30
2017-07-20T05:17:42.240Z,73.20
2017-07-20T05:20:12.846Z,73.40
2017-07-20T05:22:41.241Z,72.30
2017-07-20T05:25:09.698Z,71.90
2017-07-20T05:27:38.138Z,71.20
2017-07-20T05:30:06.537Z,70.70
2017-07-20T05:32:34.957Z,72.00
2017-07-20T05:35:03.363Z,71.90
2017-07-20T05:37:31.578Z,73.50
2017-07-20T05:39:59.857Z,70.70
2017-07-20T05:42:28.862Z,67.90
2017-07-20T05:44:57.840Z,68.00
2017-07-20T05:47:27.295Z,64.70
2017-07-20T05:49:55.771Z,64.70
2017-07-20T05:52:24.492Z,67.40
2017-07-20T05:54:52.984Z,66.50
2017-07-20T05:57:22.950Z,63.80
2017-07-20T05:59:51.431Z,67.50
2017-07-20T06:02:19.886Z,66.10
2017-07-20T06:07:26.401Z,64.20
2017-07-20T06:09:54.707Z,63.00
2017-07-20T06:12:23.141Z,61.90
2017-07-20T06:14:51.701Z,60.90
2017-07-20T06:17:20.178Z,61.40
2017-07-20T06:19:48.641Z,57.50
2017-07-20T06:22:17.101Z,55.70
2017-07-20T06:24:45.549Z,56.70
2017-07-20T06:27:22.840Z,59.00
2017-07-20T06:29:51.890Z,57.10
2017-07-20T06:32:20.389Z,55.90
2017-07-20T06:34:48.896Z,55.40
2017-07-20T06:37:17.374Z,56.50
2017-07-20T06:39:46.229Z,56.20
2017-07-20T06:42:18.202Z,52.40
2017-07-20T06:44:46.992Z,54.00
2017-07-20T06:47:15.470Z,54.70
2017-07-20T06:49:44.002Z,54.00
2017-07-20T06:52:14.671Z,50.30
2017-07-20T06:54:43.151Z,49.00
2017-07-20T06:57:11.665Z,47.70
2017-07-20T06:59:40.141Z,47.90
2017-07-20T07:02:08.591Z,48.30
2017-07-20T07:04:37.122Z,45.60
2017-07-20T07:07:05.644Z,45.80
2017-07-20T07:09:34.163Z,44.80
2017-07-20T07:12:02.459Z,47.00
2017-07-20T07:14:30.941Z,45.40
2017-07-20T07:17:02.142Z,46.00
2017-07-20T07:19:34.166Z,48.00
2017-07-20T07:22:02.651Z,44.50
2017-07-20T07:24:32.126Z,42.90
2017-07-20T07:27:00.614Z,40.00
2017-07-20T07:29:29.115Z,43.80
2017-07-20T07:32:00.728Z,41.50
2017-07-20T07:34:29.193Z,37.70
2017-07-20T07:36:57.416Z,37.30
2017-07-20T07:41:59.247Z,36.70
2017-07-20T07:44:27.783Z,37.00
2017-07-20T07:46:56.275Z,36.80
2017-07-20T07:49:24.735Z,34.40
2017-07-20T07:51:53.204Z,34.20
2017-07-20T07:54:21.668Z,36.50
2017-07-20T07:56:50.109Z,34.60
2017-07-20T07:59:18.566Z,34.10
2017-07-20T08:01:47.069Z,34.10
2017-07-20T08:04:16.318Z,34.90
2017-07-20T08:06:45.499Z,34.90
2017-07-20T08:09:13.947Z,36.80
2017-07-20T08:11:42.430Z,35.50
2017-07-20T08:14:10.858Z,34.90
2017-07-20T08:16:39.257Z,34.60
2017-07-20T08:19:07.694Z,32.00
2017-07-20T08:21:36.093Z,33.50
2017-07-20T08:24:04.489Z,33.00
2017-07-20T08:26:32.910Z,34.10
2017-07-20T08:29:01.323Z,31.00
2017-07-20T08:31:29.729Z,33.50
2017-07-20T08:33:58.327Z,33.90
2017-07-20T08:36:26.808Z,32.70
2017-07-20T08:38:55.522Z,29.20
2017-07-20T08:41:24.045Z,30.90
2017-07-20T08:43:52.552Z,31.50
2017-07-20T08:46:21.266Z,30.90
2017-07-20T08:48:49.825Z,31.60
2017-07-20T08:51:18.348Z,30.70
2017-07-20T08:53:46.837Z,31.00
2017-07-20T08:56:15.322Z,30.10
2017-07-20T08:58:44.853Z,30.40
2017-07-20T09:01:13.439Z,31.50
2017-07-20T09:03:41.919Z,29.70
2017-07-20T09:06:10.450Z,32.90
2017-07-20T09:08:38.940Z,27.90
2017-07-20T09:11:07.378Z,26.40
2017-07-20T09:13:35.965Z,29.20
2017-07-20T09:16:06.107Z,28.80
2017-07-20T09:18:34.569Z,30.00
2017-07-20T09:21:03.116Z,26.90
2017-07-20T09:23:31.571Z,29.00
2017-07-20T09:26:07.526Z,26.30
2017-07-20T09:28:39.951Z,25.80
2017-07-20T09:31:08.429Z,27.50
2017-07-20T09:33:36.939Z,27.90
2017-07-20T09:36:05.516Z,26.60
2017-07-20T09:38:37.202Z,26.40
2017-07-20T09:41:07.958Z,26.70
2017-07-20T09:43:36.500Z,27.00
2017-07-20T09:46:07.026Z,27.90
2017-07-20T09:48:37.003Z,29.00
2017-07-20T09:51:05.551Z,27.70
2017-07-20T09:53:36.493Z,27.90
2017-07-20T09:56:05.199Z,27.90
2017-07-20T09:58:33.759Z,28.60
2017-07-20T10:01:02.238Z,27.50
2017-07-20T10:03:30.697Z,27.20
2017-07-20T10:06:00.739Z,28.20
2017-07-20T10:08:28.902Z,27.30
2017-07-20T10:10:57.434Z,24.90
2017-07-20T10:13:28.009Z,26.30
2017-07-20T10:15:56.948Z,25.10
2017-07-20T10:18:25.508Z,23.20
2017-07-20T10:20:53.959Z,24.30
2017-07-20T10:26:05.306Z,27.50
2017-07-20T10:28:33.840Z,27.60
2017-07-20T10:31:05.182Z,26.20
2017-07-20T10:33:33.978Z,27.70
2017-07-20T10:36:02.435Z,22.40
2017-07-20T10:38:30.890Z,23.70
2017-07-20T10:41:00.370Z,22.80
2017-07-20T10:43:28.907Z,25.10
2017-07-20T10:45:57.431Z,24.50
2017-07-20T10:48:26.093Z,25.80
2017-07-20T10:50:54.590Z,25.60
2017-07-20T10:53:23.122Z,26.40
2017-07-20T10:55:51.674Z,24.50
2017-07-20T10:58:20.124Z,26.00
2017-07-20T11:00:48.595Z,26.60
2017-07-20T11:03:17.111Z,27.70
2017-07-20T11:05:47.431Z,25.20
2017-07-20T11:08:16.626Z,24.30
2017-07-20T11:10:45.200Z,27.10
2017-07-20T11:13:13.688Z,26.10
2017-07-20T11:18:34.475Z,26.50
2017-07-20T11:21:02.963Z,26.50
2017-07-20T11:26:15.533Z,27.30
2017-07-20T11:28:44.027Z,28.70
2017-07-20T11:31:12.522Z,26.90
2017-07-20T11:33:41.041Z,25.40
2017-07-20T11:36:09.546Z,27.60
2017-07-20T11:38:38.030Z,27.30
2017-07-20T11:41:06.530Z,25.50
2017-07-20T11:43:35.078Z,23.80
2017-07-20T11:46:03.564Z,27.50
2017-07-20T11:48:32.028Z,27.80
2017-07-20T11:51:00.513Z,27.50
2017-07-20T11:53:29.034Z,27.30
2017-07-20T11:55:57.494Z,25.80
2017-07-20T11:58:25.981Z,28.80
2017-07-20T12:00:54.629Z,28.30
2017-07-20T12:03:23.098Z,30.00
2017-07-20T12:05:51.541Z,31.40
2017-07-20T12:08:19.957Z,32.30
2017-07-20T12:10:48.361Z,33.10
2017-07-20T12:13:16.833Z,36.70
2017-07-20T12:15:46.163Z,32.10
2017-07-20T12:18:14.627Z,28.10
2017-07-20T12:20:49.936Z,26.80
2017-07-20T12:23:20.189Z,29.60
2017-07-20T12:25:48.639Z,28.30
2017-07-20T12:28:17.878Z,32.00
2017-07-20T12:30:46.297Z,31.90
2017-07-20T12:33:14.704Z,32.70
2017-07-20T12:35:43.150Z,29.80
2017-07-20T12:38:11.584Z,29.80
2017-07-20T12:40:40.280Z,30.30
2017-07-20T12:43:08.714Z,33.40
2017-07-20T12:45:37.141Z,29.10
2017-07-20T12:48:05.540Z,28.10
2017-07-20T12:50:33.934Z,29.50
2017-07-20T12:53:02.382Z,30.30
2017-07-20T12:55:30.782Z,34.20
2017-07-20T12:57:59.413Z,30.90
2017-07-20T13:00:27.861Z,29.80
2017-07-20T13:02:56.280Z,30.40
2017-07-20T13:05:24.673Z,30.70
2017-07-20T13:07:53.130Z,29.10
2017-07-20T13:10:21.534Z,31.00
2017-07-20T13:12:49.937Z,27.20
2017-07-20T13:15:18.361Z,28.50
2017-07-20T13:17:46.758Z,27.60
2017-07-20T13:20:15.157Z,30.10
2017-07-20T13:22:43.672Z,29.40
2017-07-20T13:25:12.065Z,29.10
2017-07-20T13:27:40.505Z,27.70
2017-07-20T13:30:08.961Z,29.20
2017-07-20T13:32:37.369Z,34.80
2017-07-20T13:35:05.777Z,32.70
2017-07-20T13:37:34.211Z,30.00
2017-07-20T13:40:02.617Z,31.40
2017-07-20T13:42:31.021Z,29.50
2017-07-20T13:44:59.446Z,32.90
2017-07-20T13:47:27.848Z,33.50
2017-07-20T13:49:56.259Z,33.70
2017-07-20T13:52:24.708Z,33.10
2017-07-20T13:54:53.886Z,33.30
2017-07-20T13:57:22.288Z,33.40
2017-07-20T13:59:50.705Z,31.50
2017-07-20T14:02:19.134Z,29.50
2017-07-20T14:04:47.541Z,30.70
2017-07-20T14:07:15.949Z,31.30
2017-07-20T14:09:44.376Z,30.90
2017-07-20T14:12:12.798Z,34.70
2017-07-20T14:14:41.196Z,34.30
2017-07-20T14:17:09.659Z,38.20
2017-07-20T14:19:38.060Z,31.10
2017-07-20T14:22:06.469Z,32.30
2017-07-20T14:24:34.887Z,36.20
2017-07-20T14:27:03.289Z,34.10
2017-07-20T14:29:31.742Z,34.40
2017-07-20T14:32:00.155Z,33.10
2017-07-20T14:34:28.582Z,32.70
2017-07-20T14:36:57.026Z,33.60
2017-07-20T14:39:25.444Z,34.40
2017-07-20T14:41:53.973Z,30.20
2017-07-20T14:44:22.410Z,36.90
2017-07-20T14:46:50.819Z,36.70
2017-07-20T14:49:19.225Z,33.50
2017-07-20T14:51:47.744Z,31.20
2017-07-20T14:54:16.148Z,32.70
2017-07-20T14:56:44.549Z,32.30
2017-07-20T14:59:12.977Z,32.30
2017-07-20T15:01:41.430Z,32.30
2017-07-20T15:04:09.925Z,34.20
2017-07-20T15:06:38.362Z,31.50
2017-07-20T15:09:06.761Z,32.10
2017-07-20T15:11:35.193Z,36.50
2017-07-20T15:14:03.601Z,32.00
2017-07-20T15:16:32.765Z,34.60
2017-07-20T15:19:01.201Z,34.50
2017-07-20T15:21:29.637Z,32.50
2017-07-20T15:23:58.080Z,33.10
2017-07-20T15:26:26.517Z,32.40
2017-07-20T15:28:54.921Z,34.90
2017-07-20T15:31:23.351Z,35.70
2017-07-20T15:33:51.765Z,34.50
2017-07-20T15:36:20.182Z,34.00
2017-07-20T15:38:48.583Z,39.10
2017-07-20T15:41:17.066Z,36.30
2017-07-20T15:43:45.467Z,42.50
2017-07-20T15:46:13.882Z,45.80
2017-07-20T15:48:42.297Z,43.50
2017-07-20T15:51:10.707Z,42.20
2017-07-20T15:53:39.112Z,44.00
2017-07-20T15:56:07.549Z,45.80
2017-07-20T15:58:35.973Z,43.50
2017-07-20T16:01:04.382Z,39.80
2017-07-20T16:03:32.901Z,39.20
2017-07-20T16:06:01.297Z,38.10
2017-07-20T16:08:29.706Z,43.10
2017-07-20T16:10:58.133Z,46.50
2017-07-20T16:13:26.537Z,39.00
2017-07-20T16:15:54.940Z,44.80
2017-07-20T16:18:23.366Z,45.80
2017-07-20T16:20:51.793Z,46.30
2017-07-20T16:23:20.226Z,48.50
2017-07-20T16:25:48.671Z,48.40
2017-07-20T16:28:17.088Z,49.00
2017-07-20T16:30:45.496Z,46.20
2017-07-20T16:33:14.017Z,45.50
2017-07-20T16:35:42.419Z,49.80
2017-07-20T16:38:10.813Z,42.60
2017-07-20T16:40:39.425Z,45.10
2017-07-20T16:43:07.833Z,45.90
2017-07-20T16:45:36.327Z,41.60
2017-07-20T16:48:04.813Z,42.40
2017-07-20T16:50:33.349Z,41.50
2017-07-20T16:53:01.810Z,40.40
2017-07-20T16:55:30.281Z,41.40
2017-07-20T16:57:58.736Z,43.40
2017-07-20T17:00:27.239Z,41.90
2017-07-20T17:02:55.779Z,41.60
2017-07-20T17:05:24.245Z,42.50
2017-07-20T17:07:52.687Z,44.30
2017-07-20T17:10:21.181Z,43.90
2017-07-20T17:12:49.598Z,46.50
2017-07-20T17:15:18.032Z,46.50
2017-07-20T17:17:46.452Z,46.20
2017-07-20T17:20:14.856Z,45.40
2017-07-20T17:22:44.026Z,47.60
2017-07-20T17:25:12.448Z,47.60
2017-07-20T17:27:40.858Z,43.70
2017-07-20T17:30:09.350Z,47.00
2017-07-20T17:32:37.773Z,48.20
2017-07-20T17:35:06.182Z,46.60
2017-07-20T17:37:34.587Z,48.80
2017-07-20T17:40:03.028Z,46.40
2017-07-20T17:42:31.440Z,47.60
2017-07-20T17:44:59.849Z,49.30
2017-07-20T17:47:28.433Z,50.30
2017-07-20T17:49:56.977Z,52.60
2017-07-20T17:52:25.477Z,54.00
2017-07-20T17:54:53.909Z,55.40
2017-07-20T17:57:21.970Z,55.20
2017-07-20T17:59:50.511Z,58.50
2017-07-20T18:02:18.958Z,57.40
2017-07-20T18:04:47.358Z,59.40
2017-07-20T18:07:15.754Z,60.00
2017-07-20T18:09:44.213Z,60.10
2017-07-20T18:12:12.943Z,62.00
2017-07-20T18:14:42.157Z,62.00
2017-07-20T18:17:10.636Z,61.90
2017-07-20T18:19:39.837Z,62.50
2017-07-20T18:22:08.260Z,62.60
2017-07-20T18:24:36.688Z,63.40
2017-07-20T18:27:04.929Z,63.50
2017-07-20T18:29:33.381Z,63.80
2017-07-20T18:32:01.813Z,64.50
2017-07-20T18:34:30.205Z,64.50
2017-07-20T18:36:58.615Z,65.10
2017-07-20T18:39:27.061Z,65.90
2017-07-20T18:41:55.468Z,65.40
2017-07-20T18:44:23.869Z,64.40
2017-07-20T18:46:52.335Z,66.00
2017-07-20T18:49:20.724Z,64.90
2017-07-20T18:51:49.119Z,66.40
2017-07-20T18:54:17.551Z,65.70
2017-07-20T18:56:45.957Z,66.30
2017-07-20T18:59:14.363Z,66.60
2017-07-20T19:01:42.797Z,66.40
2017-07-20T19:04:11.965Z,67.70
2017-07-20T19:06:40.424Z,67.40
2017-07-20T19:09:08.841Z,68.00
2017-07-20T19:11:37.246Z,68.20
2017-07-20T19:14:06.418Z,69.00
2017-07-20T19:16:34.833Z,69.00
2017-07-20T19:19:03.241Z,68.80
2017-07-20T19:21:31.637Z,68.80
2017-07-20T19:24:00.061Z,68.70
2017-07-20T19:26:28.476Z,69.30
2017-07-20T19:28:56.879Z,68.90
2017-07-20T19:31:25.302Z,71.90
2017-07-20T19:33:53.705Z,69.30
2017-07-20T19:36:22.102Z,67.60
2017-07-20T19:38:50.542Z,70.20
2017-07-20T19:41:18.940Z,69.80
2017-07-20T19:43:47.338Z,69.50
2017-07-20T19:46:15.750Z,69.80
2017-07-20T19:48:44.169Z,70.10
2017-07-20T19:51:12.602Z,70.40
2017-07-20T19:53:41.025Z,71.60
2017-07-20T19:56:09.533Z,69.90
2017-07-20T19:58:37.935Z,62.70
2017-07-20T20:01:06.341Z,56.10
2017-07-20T20:03:36.354Z,54.80
2017-07-20T20:06:04.819Z,53.70
2017-07-20T20:08:34.901Z,53.20
2017-07-20T20:11:03.348Z,53.40
2017-07-20T20:13:31.946Z,52.90
2017-07-20T20:16:00.357Z,53.20
2017-07-20T20:18:28.793Z,54.30
2017-07-20T20:20:57.194Z,54.90
2017-07-20T20:23:25.625Z,60.50
2017-07-20T20:25:54.087Z,65.40
2017-07-20T20:28:22.513Z,65.10
2017-07-20T20:30:50.929Z,65.30
2017-07-20T20:33:19.342Z,66.70
2017-07-20T20:35:47.749Z,70.40
2017-07-20T20:38:16.149Z,73.60
2017-07-20T20:40:45.128Z,75.60
2017-07-20T20:43:14.261Z,77.10
2017-07-20T20:45:42.685Z,80.00
2017-07-20T20:48:13.422Z,80.00
2017-07-20T20:50:41.838Z,81.20
2017-07-20T20:53:09.917Z,82.30
2017-07-20T20:55:38.439Z,82.70
2017-07-20T20:58:06.853Z,82.80
2017-07-20T21:00:35.274Z,82.10
2017-07-20T21:03:03.733Z,82.60
2017-07-20T21:05:32.151Z,82.10
2017-07-20T21:08:00.558Z,81.90
2017-07-20T21:10:29.004Z,81.10
2017-07-20T21:12:57.409Z,81.40
2017-07-20T21:15:25.837Z,80.20
2017-07-20T21:17:54.285Z,81.90
2017-07-20T21:20:22.690Z,81.10
2017-07-20T21:22:51.087Z,81.00
2017-07-20T21:25:19.553Z,80.70
2017-07-20T21:27:47.949Z,81.80
2017-07-20T21:30:16.351Z,80.80
2017-07-20T21:32:44.951Z,81.60
2017-07-20T21:35:13.350Z,82.00
2017-07-20T21:37:41.825Z,82.30
2017-07-20T21:40:10.258Z,81.50
2017-07-20T21:42:38.664Z,81.00
2017-07-20T21:45:07.079Z,81.20
2017-07-20T21:47:35.511Z,80.60
2017-07-20T21:50:03.922Z,81.00
2017-07-20T21:52:32.334Z,81.10
2017-07-20T21:55:00.748Z,79.80
2017-07-20T21:57:29.159Z,80.20
2017-07-20T21:59:57.558Z,80.70
2017-07-20T22:02:26.833Z,80.60
2017-07-20T22:04:55.236Z,81.40
2017-07-20T22:07:23.638Z,81.80
2017-07-20T22:09:52.328Z,81.70
2017-07-20T22:12:20.737Z,84.80
2017-07-20T22:14:49.142Z,86.60
2017-07-20T22:17:17.558Z,87.70
2017-07-20T22:19:45.964Z,86.00
2017-07-20T22:22:14.369Z,86.60
2017-07-20T22:24:42.809Z,89.60
2017-07-20T22:27:11.263Z,86.90
2017-07-20T22:29:39.674Z,86.10
2017-07-20T22:32:08.101Z,84.70
2017-07-20T22:34:36.525Z,84.10
2017-07-20T22:37:04.930Z,83.30
2017-07-20T22:39:33.390Z,83.40
2017-07-20T22:42:01.852Z,83.30
2017-07-20T22:44:30.268Z,83.80
2017-07-20T22:46:58.697Z,83.80
2017-07-20T22:49:27.102Z,84.00
2017-07-20T22:51:55.502Z,83.90
2017-07-20T22:54:23.933Z,83.10
2017-07-20T22:56:52.342Z,81.50
2017-07-20T22:59:20.754Z,81.70
2017-07-20T23:01:49.325Z,80.10
2017-07-20T23:04:17.753Z,81.10
2017-07-20T23:06:46.246Z,80.50
2017-07-20T23:09:14.721Z,80.70
2017-07-20T23:11:43.174Z,80.60
2017-07-20T23:14:11.585Z,80.70
2017-07-20T23:16:40.009Z,80.60
2017-07-20T23:19:08.405Z,80.00
2017-07-20T23:21:37.490Z,79.10
2017-07-20T23:24:05.905Z,78.50
2017-07-20T23:26:35.072Z,79.50
2017-07-20T23:29:03.478Z,79.30
2017-07-20T23:31:31.910Z,79.60
2017-07-20T23:34:00.318Z,79.20
2017-07-20T23:36:28.723Z,79.40
2017-07-20T23:38:57.157Z,79.50
2017-07-20T23:41:25.557Z,79.50
2017-07-20T23:43:53.959Z,79.00
2017-07-20T23:46:22.446Z,79.40
2017-07-20T23:48:50.846Z,79.70
2017-07-20T23:51:19.253Z,79.80
2017-07-20T23:53:47.687Z,79.40
2017-07-20T23:56:16.865Z,81.20
2017-07-20T23:58:45.267Z,81.10
